sensor_id;sensor_type;location;lat;lon;timestamp;pressure;altitude;pressure_sealevel;temperature;humidity
59435;BME280;45241;49.768;8.636;2022-08-01T00:00:30;100141.97;;;25.22;65.05
59435;BME280;45241;49.768;8.636;2022-08-01T00:02:55;100137.53;;;25.27;65.20
59435;BME280;45241;49.768;8.636;2022-08-01T00:05:21;100137.38;;;25.42;65.39
59435;BME280;45241;49.768;8.636;2022-08-01T00:07:46;100142.47;;;25.54;65.68
59435;BME280;45241;49.768;8.636;2022-08-01T00:10:13;100134.16;;;25.35;66.08
59435;BME280;45241;49.768;8.636;2022-08-01T00:12:39;100142.03;;;25.46;65.44
59435;BME280;45241;49.768;8.636;2022-08-01T00:15:07;100148.84;;;25.20;65.33
59435;BME280;45241;49.768;8.636;2022-08-01T00:17:33;100150.03;;;25.38;65.87
59435;BME280;45241;49.768;8.636;2022-08-01T00:19:58;100147.25;;;25.43;65.26
59435;BME280;45241;49.768;8.636;2022-08-01T00:22:23;100144.22;;;25.44;65.50
59435;BME280;45241;49.768;8.636;2022-08-01T00:24:49;100134.03;;;25.21;66.54
59435;BME280;45241;49.768;8.636;2022-08-01T00:27:14;100140.13;;;25.13;66.41
59435;BME280;45241;49.768;8.636;2022-08-01T00:29:39;100141.19;;;24.88;67.24
59435;BME280;45241;49.768;8.636;2022-08-01T00:32:05;100141.50;;;24.47;69.00
59435;BME280;45241;49.768;8.636;2022-08-01T00:34:30;100144.81;;;25.12;66.71
59435;BME280;45241;49.768;8.636;2022-08-01T00:36:56;100145.00;;;24.92;67.22
59435;BME280;45241;49.768;8.636;2022-08-01T00:39:21;100135.81;;;24.78;68.05
59435;BME280;45241;49.768;8.636;2022-08-01T00:41:46;100138.81;;;25.10;66.42
59435;BME280;45241;49.768;8.636;2022-08-01T00:44:11;100139.34;;;24.83;68.23
59435;BME280;45241;49.768;8.636;2022-08-01T00:46:37;100143.13;;;25.16;65.97
59435;BME280;45241;49.768;8.636;2022-08-01T00:49:02;100137.97;;;25.10;66.84
59435;BME280;45241;49.768;8.636;2022-08-01T00:51:28;100142.13;;;25.31;66.25
59435;BME280;45241;49.768;8.636;2022-08-01T00:53:54;100140.44;;;25.11;66.67
59435;BME280;45241;49.768;8.636;2022-08-01T00:56:24;100138.88;;;24.66;68.39
59435;BME280;45241;49.768;8.636;2022-08-01T00:58:50;100128.50;;;24.97;67.47
59435;BME280;45241;49.768;8.636;2022-08-01T01:01:16;100139.66;;;25.06;66.58
59435;BME280;45241;49.768;8.636;2022-08-01T01:03:41;100135.47;;;25.42;66.74
59435;BME280;45241;49.768;8.636;2022-08-01T01:06:14;100146.53;;;25.32;66.44
59435;BME280;45241;49.768;8.636;2022-08-01T01:12:02;100148.13;;;25.09;67.85
59435;BME280;45241;49.768;8.636;2022-08-01T01:17:06;100155.47;;;25.19;67.10
59435;BME280;45241;49.768;8.636;2022-08-01T01:19:39;100148.50;;;25.27;67.42
59435;BME280;45241;49.768;8.636;2022-08-01T01:30:38;100160.25;;;25.03;68.06
59435;BME280;45241;49.768;8.636;2022-08-01T01:33:06;100159.69;;;25.06;67.39
59435;BME280;45241;49.768;8.636;2022-08-01T01:35:37;100155.56;;;24.75;68.40
59435;BME280;45241;49.768;8.636;2022-08-01T01:38:18;100162.91;;;24.84;68.68
59435;BME280;45241;49.768;8.636;2022-08-01T01:40:46;100162.22;;;24.69;68.43
59435;BME280;45241;49.768;8.636;2022-08-01T01:43:13;100153.50;;;24.90;68.23
59435;BME280;45241;49.768;8.636;2022-08-01T01:45:40;100164.16;;;25.26;67.90
59435;BME280;45241;49.768;8.636;2022-08-01T01:48:07;100159.03;;;25.14;67.30
59435;BME280;45241;49.768;8.636;2022-08-01T01:50:35;100164.16;;;25.26;67.35
59435;BME280;45241;49.768;8.636;2022-08-01T01:53:02;100162.81;;;24.95;68.24
59435;BME280;45241;49.768;8.636;2022-08-01T01:55:30;100169.72;;;25.16;67.52
59435;BME280;45241;49.768;8.636;2022-08-01T01:57:56;100162.28;;;25.21;67.64
59435;BME280;45241;49.768;8.636;2022-08-01T02:00:23;100159.56;;;25.16;67.61
59435;BME280;45241;49.768;8.636;2022-08-01T02:02:50;100163.06;;;24.98;68.25
59435;BME280;45241;49.768;8.636;2022-08-01T02:05:18;100163.13;;;24.88;68.87
59435;BME280;45241;49.768;8.636;2022-08-01T02:07:44;100163.63;;;24.95;68.80
59435;BME280;45241;49.768;8.636;2022-08-01T02:10:11;100163.94;;;24.93;68.71
59435;BME280;45241;49.768;8.636;2022-08-01T02:12:39;100168.31;;;24.95;68.54
59435;BME280;45241;49.768;8.636;2022-08-01T02:15:07;100172.47;;;24.87;68.83
59435;BME280;45241;49.768;8.636;2022-08-01T02:17:37;100171.50;;;24.73;69.27
59435;BME280;45241;49.768;8.636;2022-08-01T02:20:06;100170.91;;;24.76;69.46
59435;BME280;45241;49.768;8.636;2022-08-01T02:22:44;100169.91;;;24.61;69.77
59435;BME280;45241;49.768;8.636;2022-08-01T02:25:20;100169.94;;;24.56;70.12
59435;BME280;45241;49.768;8.636;2022-08-01T02:30:14;100172.53;;;24.38;70.68
59435;BME280;45241;49.768;8.636;2022-08-01T02:32:49;100176.06;;;24.43;70.72
59435;BME280;45241;49.768;8.636;2022-08-01T02:35:23;100165.13;;;24.43;70.78
59435;BME280;45241;49.768;8.636;2022-08-01T02:37:50;100175.25;;;24.43;70.99
59435;BME280;45241;49.768;8.636;2022-08-01T02:40:17;100171.72;;;24.37;71.14
59435;BME280;45241;49.768;8.636;2022-08-01T02:42:49;100184.88;;;24.35;71.08
59435;BME280;45241;49.768;8.636;2022-08-01T02:45:17;100178.28;;;24.36;70.91
59435;BME280;45241;49.768;8.636;2022-08-01T02:47:44;100173.84;;;24.45;69.85
59435;BME280;45241;49.768;8.636;2022-08-01T02:50:12;100173.88;;;24.40;70.61
59435;BME280;45241;49.768;8.636;2022-08-01T02:52:40;100174.50;;;24.27;71.42
59435;BME280;45241;49.768;8.636;2022-08-01T02:55:08;100173.59;;;23.87;72.80
59435;BME280;45241;49.768;8.636;2022-08-01T02:57:35;100177.28;;;24.22;71.84
59435;BME280;45241;49.768;8.636;2022-08-01T03:00:03;100181.66;;;24.23;71.66
59435;BME280;45241;49.768;8.636;2022-08-01T03:02:30;100175.50;;;23.97;73.18
59435;BME280;45241;49.768;8.636;2022-08-01T03:04:58;100173.38;;;24.33;71.41
59435;BME280;45241;49.768;8.636;2022-08-01T03:07:27;100176.31;;;24.47;71.04
59435;BME280;45241;49.768;8.636;2022-08-01T03:09:55;100168.69;;;24.39;71.55
59435;BME280;45241;49.768;8.636;2022-08-01T03:12:24;100167.28;;;24.46;70.79
59435;BME280;45241;49.768;8.636;2022-08-01T03:14:51;100159.50;;;24.58;71.07
59435;BME280;45241;49.768;8.636;2022-08-01T03:17:18;100169.69;;;24.53;71.03
59435;BME280;45241;49.768;8.636;2022-08-01T03:19:45;100176.22;;;24.18;72.63
59435;BME280;45241;49.768;8.636;2022-08-01T03:22:12;100166.75;;;24.44;71.84
59435;BME280;45241;49.768;8.636;2022-08-01T03:24:40;100174.63;;;24.51;71.90
59435;BME280;45241;49.768;8.636;2022-08-01T03:27:08;100181.78;;;24.47;71.70
59435;BME280;45241;49.768;8.636;2022-08-01T03:29:34;100174.97;;;24.39;72.32
59435;BME280;45241;49.768;8.636;2022-08-01T03:32:00;100176.88;;;24.44;72.02
59435;BME280;45241;49.768;8.636;2022-08-01T03:34:27;100183.16;;;24.00;73.63
59435;BME280;45241;49.768;8.636;2022-08-01T03:36:59;100177.84;;;24.19;73.04
59435;BME280;45241;49.768;8.636;2022-08-01T03:39:33;100178.06;;;24.27;73.20
59435;BME280;45241;49.768;8.636;2022-08-01T03:42:05;100179.63;;;24.44;72.35
59435;BME280;45241;49.768;8.636;2022-08-01T03:44:33;100180.72;;;24.43;72.14
59435;BME280;45241;49.768;8.636;2022-08-01T03:47:06;100173.63;;;24.37;72.13
59435;BME280;45241;49.768;8.636;2022-08-01T03:49:33;100187.50;;;24.50;72.66
59435;BME280;45241;49.768;8.636;2022-08-01T03:52:04;100189.97;;;24.52;72.33
59435;BME280;45241;49.768;8.636;2022-08-01T03:54:34;100184.19;;;24.53;72.79
59435;BME280;45241;49.768;8.636;2022-08-01T03:57:01;100188.03;;;24.52;72.36
59435;BME280;45241;49.768;8.636;2022-08-01T03:59:28;100188.03;;;24.52;73.10
59435;BME280;45241;49.768;8.636;2022-08-01T04:01:55;100177.34;;;24.56;72.82
59435;BME280;45241;49.768;8.636;2022-08-01T04:04:21;100177.28;;;24.22;73.21
59435;BME280;45241;49.768;8.636;2022-08-01T04:06:46;100172.75;;;24.46;72.28
59435;BME280;45241;49.768;8.636;2022-08-01T04:09:15;100174.16;;;24.44;72.67
59435;BME280;45241;49.768;8.636;2022-08-01T04:11:41;100175.22;;;24.48;72.90
59435;BME280;45241;49.768;8.636;2022-08-01T04:14:07;100186.13;;;24.53;73.00
59435;BME280;45241;49.768;8.636;2022-08-01T04:16:33;100185.88;;;24.54;72.84
59435;BME280;45241;49.768;8.636;2022-08-01T04:18:58;100190.75;;;24.57;72.06
59435;BME280;45241;49.768;8.636;2022-08-01T04:21:25;100196.25;;;24.57;71.81
59435;BME280;45241;49.768;8.636;2022-08-01T04:23:57;100193.44;;;24.23;72.86
59435;BME280;45241;49.768;8.636;2022-08-01T04:26:24;100189.47;;;23.95;74.80
59435;BME280;45241;49.768;8.636;2022-08-01T04:28:51;100192.53;;;24.38;73.03
59435;BME280;45241;49.768;8.636;2022-08-01T04:31:17;100198.28;;;24.37;72.91
59435;BME280;45241;49.768;8.636;2022-08-01T04:33:47;100206.44;;;24.47;72.98
59435;BME280;45241;49.768;8.636;2022-08-01T04:36:17;100205.28;;;24.09;74.20
59435;BME280;45241;49.768;8.636;2022-08-01T04:38:45;100202.88;;;23.92;76.19
59435;BME280;45241;49.768;8.636;2022-08-01T04:41:12;100201.97;;;24.17;74.29
59435;BME280;45241;49.768;8.636;2022-08-01T04:43:38;100204.94;;;23.51;77.44
59435;BME280;45241;49.768;8.636;2022-08-01T04:46:05;100205.00;;;24.15;74.23
59435;BME280;45241;49.768;8.636;2022-08-01T04:48:32;100202.59;;;24.03;75.14
59435;BME280;45241;49.768;8.636;2022-08-01T04:50:58;100210.72;;;24.19;74.27
59435;BME280;45241;49.768;8.636;2022-08-01T04:53:24;100224.91;;;24.31;74.33
59435;BME280;45241;49.768;8.636;2022-08-01T04:55:51;100219.13;;;24.32;73.84
59435;BME280;45241;49.768;8.636;2022-08-01T04:58:16;100216.66;;;24.36;74.36
59435;BME280;45241;49.768;8.636;2022-08-01T05:00:41;100218.31;;;24.32;74.34
59435;BME280;45241;49.768;8.636;2022-08-01T05:03:07;100218.25;;;23.77;75.08
59435;BME280;45241;49.768;8.636;2022-08-01T05:05:33;100227.38;;;24.27;74.05
59435;BME280;45241;49.768;8.636;2022-08-01T05:07:58;100228.94;;;24.44;73.35
59435;BME280;45241;49.768;8.636;2022-08-01T05:10:25;100226.91;;;24.59;72.17
59435;BME280;45241;49.768;8.636;2022-08-01T05:12:51;100222.41;;;24.34;74.42
59435;BME280;45241;49.768;8.636;2022-08-01T05:15:16;100229.34;;;24.66;73.85
59435;BME280;45241;49.768;8.636;2022-08-01T05:17:42;100228.78;;;24.15;73.81
59435;BME280;45241;49.768;8.636;2022-08-01T05:20:07;100228.84;;;24.59;73.19
59435;BME280;45241;49.768;8.636;2022-08-01T05:22:33;100230.97;;;24.72;72.94
59435;BME280;45241;49.768;8.636;2022-08-01T05:24:58;100225.78;;;24.65;73.20
59435;BME280;45241;49.768;8.636;2022-08-01T05:27:24;100231.50;;;24.25;74.24
59435;BME280;45241;49.768;8.636;2022-08-01T05:29:50;100229.09;;;25.02;71.60
59435;BME280;45241;49.768;8.636;2022-08-01T05:32:15;100232.28;;;24.80;72.35
59435;BME280;45241;49.768;8.636;2022-08-01T05:34:41;100235.50;;;24.48;73.29
59435;BME280;45241;49.768;8.636;2022-08-01T05:37:06;100229.91;;;24.19;74.31
59435;BME280;45241;49.768;8.636;2022-08-01T05:39:32;100232.03;;;24.27;74.02
59435;BME280;45241;49.768;8.636;2022-08-01T05:41:57;100232.38;;;24.70;73.27
59435;BME280;45241;49.768;8.636;2022-08-01T05:44:23;100236.63;;;24.86;71.59
59435;BME280;45241;49.768;8.636;2022-08-01T05:46:49;100239.56;;;25.29;71.17
59435;BME280;45241;49.768;8.636;2022-08-01T05:49:14;100239.41;;;24.31;73.69
59435;BME280;45241;49.768;8.636;2022-08-01T05:51:39;100249.19;;;24.48;74.21
59435;BME280;45241;49.768;8.636;2022-08-01T05:54:05;100238.13;;;24.63;72.62
59435;BME280;45241;49.768;8.636;2022-08-01T05:56:30;100245.25;;;24.10;74.74
59435;BME280;45241;49.768;8.636;2022-08-01T05:58:56;100237.69;;;23.71;77.02
59435;BME280;45241;49.768;8.636;2022-08-01T06:01:21;100248.38;;;23.72;77.26
59435;BME280;45241;49.768;8.636;2022-08-01T06:03:46;100236.13;;;23.39;78.88
59435;BME280;45241;49.768;8.636;2022-08-01T06:06:12;100250.28;;;23.72;77.77
59435;BME280;45241;49.768;8.636;2022-08-01T06:08:39;100247.91;;;23.40;78.75
59435;BME280;45241;49.768;8.636;2022-08-01T06:11:05;100255.50;;;23.68;77.99
59435;BME280;45241;49.768;8.636;2022-08-01T06:13:30;100255.19;;;23.90;77.39
59435;BME280;45241;49.768;8.636;2022-08-01T06:15:56;100253.38;;;24.35;75.18
59435;BME280;45241;49.768;8.636;2022-08-01T06:18:21;100259.53;;;24.01;76.44
59435;BME280;45241;49.768;8.636;2022-08-01T06:20:46;100268.47;;;24.82;73.78
59435;BME280;45241;49.768;8.636;2022-08-01T06:23:12;100260.41;;;25.30;72.35
59435;BME280;45241;49.768;8.636;2022-08-01T06:25:38;100259.72;;;25.48;70.85
59435;BME280;45241;49.768;8.636;2022-08-01T06:28:04;100259.63;;;25.58;71.62
59435;BME280;45241;49.768;8.636;2022-08-01T06:30:29;100260.75;;;25.23;71.75
59435;BME280;45241;49.768;8.636;2022-08-01T06:32:54;100268.25;;;25.70;71.16
59435;BME280;45241;49.768;8.636;2022-08-01T06:35:25;100266.66;;;25.06;72.94
59435;BME280;45241;49.768;8.636;2022-08-01T06:37:50;100265.22;;;25.14;72.44
59435;BME280;45241;49.768;8.636;2022-08-01T06:40:16;100270.47;;;24.07;75.46
59435;BME280;45241;49.768;8.636;2022-08-01T06:42:41;100274.09;;;24.51;74.68
59435;BME280;45241;49.768;8.636;2022-08-01T06:45:09;100273.88;;;25.26;70.83
59435;BME280;45241;49.768;8.636;2022-08-01T06:47:36;100272.53;;;25.23;71.32
59435;BME280;45241;49.768;8.636;2022-08-01T06:50:03;100272.25;;;25.25;70.53
59435;BME280;45241;49.768;8.636;2022-08-01T06:52:28;100270.31;;;25.60;70.28
59435;BME280;45241;49.768;8.636;2022-08-01T06:54:54;100282.25;;;25.45;71.07
59435;BME280;45241;49.768;8.636;2022-08-01T06:57:19;100283.66;;;25.71;69.39
59435;BME280;45241;49.768;8.636;2022-08-01T06:59:44;100279.69;;;25.54;69.54
59435;BME280;45241;49.768;8.636;2022-08-01T07:02:10;100276.31;;;24.49;73.74
59435;BME280;45241;49.768;8.636;2022-08-01T07:04:35;100276.47;;;25.12;71.96
59435;BME280;45241;49.768;8.636;2022-08-01T07:07:01;100276.13;;;25.53;69.97
59435;BME280;45241;49.768;8.636;2022-08-01T07:09:26;100278.09;;;24.20;74.29
59435;BME280;45241;49.768;8.636;2022-08-01T07:11:52;100286.84;;;24.81;72.71
59435;BME280;45241;49.768;8.636;2022-08-01T07:14:19;100280.59;;;25.10;72.44
59435;BME280;45241;49.768;8.636;2022-08-01T07:16:45;100273.28;;;25.63;69.72
59435;BME280;45241;49.768;8.636;2022-08-01T07:19:10;100279.22;;;25.99;69.71
59435;BME280;45241;49.768;8.636;2022-08-01T07:21:35;100278.63;;;25.78;68.96
59435;BME280;45241;49.768;8.636;2022-08-01T07:24:01;100276.22;;;25.96;68.34
59435;BME280;45241;49.768;8.636;2022-08-01T07:26:26;100278.47;;;26.18;68.54
59435;BME280;45241;49.768;8.636;2022-08-01T07:28:52;100275.53;;;25.85;68.64
59435;BME280;45241;49.768;8.636;2022-08-01T07:31:18;100271.31;;;25.40;70.67
59435;BME280;45241;49.768;8.636;2022-08-01T07:33:43;100263.94;;;25.64;69.88
59435;BME280;45241;49.768;8.636;2022-08-01T07:36:09;100267.72;;;26.21;68.66
59435;BME280;45241;49.768;8.636;2022-08-01T07:38:34;100256.16;;;26.00;67.96
59435;BME280;45241;49.768;8.636;2022-08-01T07:40:59;100271.31;;;25.69;69.02
59435;BME280;45241;49.768;8.636;2022-08-01T07:43:25;100269.13;;;26.19;68.70
59435;BME280;45241;49.768;8.636;2022-08-01T07:45:50;100267.84;;;25.87;68.07
59435;BME280;45241;49.768;8.636;2022-08-01T07:48:15;100257.88;;;26.39;67.69
59435;BME280;45241;49.768;8.636;2022-08-01T07:50:41;100252.53;;;26.48;69.14
59435;BME280;45241;49.768;8.636;2022-08-01T07:53:06;100255.44;;;25.32;70.83
59435;BME280;45241;49.768;8.636;2022-08-01T07:55:31;100262.50;;;25.43;69.58
59435;BME280;45241;49.768;8.636;2022-08-01T07:57:57;100261.53;;;25.87;69.91
59435;BME280;45241;49.768;8.636;2022-08-01T08:00:22;100262.38;;;26.06;68.87
59435;BME280;45241;49.768;8.636;2022-08-01T08:02:48;100260.06;;;26.18;67.32
59435;BME280;45241;49.768;8.636;2022-08-01T08:05:13;100261.22;;;26.55;66.80
59435;BME280;45241;49.768;8.636;2022-08-01T08:07:39;100258.59;;;26.02;68.41
59435;BME280;45241;49.768;8.636;2022-08-01T08:10:05;100255.72;;;26.55;67.14
59435;BME280;45241;49.768;8.636;2022-08-01T08:12:30;100257.81;;;27.01;66.31
59435;BME280;45241;49.768;8.636;2022-08-01T08:14:56;100258.03;;;27.04;66.12
59435;BME280;45241;49.768;8.636;2022-08-01T08:17:25;100270.78;;;26.81;64.73
59435;BME280;45241;49.768;8.636;2022-08-01T08:19:50;100270.38;;;26.88;64.82
59435;BME280;45241;49.768;8.636;2022-08-01T08:22:15;100261.44;;;26.58;65.08
59435;BME280;45241;49.768;8.636;2022-08-01T08:24:41;100266.13;;;26.58;66.37
59435;BME280;45241;49.768;8.636;2022-08-01T08:27:06;100265.72;;;26.88;66.02
59435;BME280;45241;49.768;8.636;2022-08-01T08:29:32;100269.13;;;26.80;64.68
59435;BME280;45241;49.768;8.636;2022-08-01T08:31:59;100266.81;;;27.06;65.13
59435;BME280;45241;49.768;8.636;2022-08-01T08:34:26;100269.47;;;26.74;64.25
59435;BME280;45241;49.768;8.636;2022-08-01T08:36:52;100269.81;;;26.48;64.86
59435;BME280;45241;49.768;8.636;2022-08-01T08:39:17;100272.34;;;26.26;65.27
59435;BME280;45241;49.768;8.636;2022-08-01T08:41:43;100274.06;;;26.59;65.49
59435;BME280;45241;49.768;8.636;2022-08-01T08:44:09;100272.75;;;26.94;63.99
59435;BME280;45241;49.768;8.636;2022-08-01T08:46:41;100271.44;;;26.92;63.83
59435;BME280;45241;49.768;8.636;2022-08-01T08:49:06;100266.41;;;27.45;65.74
59435;BME280;45241;49.768;8.636;2022-08-01T08:51:34;100261.75;;;26.57;64.00
59435;BME280;45241;49.768;8.636;2022-08-01T08:54:03;100266.25;;;27.23;62.78
59435;BME280;45241;49.768;8.636;2022-08-01T08:56:30;100260.78;;;26.85;63.26
59435;BME280;45241;49.768;8.636;2022-08-01T08:58:59;100267.34;;;26.89;64.34
59435;BME280;45241;49.768;8.636;2022-08-01T09:01:25;100263.25;;;26.87;64.83
59435;BME280;45241;49.768;8.636;2022-08-01T09:03:50;100257.88;;;27.47;61.69
59435;BME280;45241;49.768;8.636;2022-08-01T09:06:16;100266.69;;;27.63;61.76
59435;BME280;45241;49.768;8.636;2022-08-01T09:08:41;100256.41;;;27.82;62.49
59435;BME280;45241;49.768;8.636;2022-08-01T09:11:07;100250.66;;;27.78;62.41
59435;BME280;45241;49.768;8.636;2022-08-01T09:13:32;100252.72;;;28.00;60.82
59435;BME280;45241;49.768;8.636;2022-08-01T09:15:57;100250.47;;;27.89;61.18
59435;BME280;45241;49.768;8.636;2022-08-01T09:18:31;100253.88;;;28.13;60.95
59435;BME280;45241;49.768;8.636;2022-08-01T09:21:16;100254.47;;;27.82;61.95
59435;BME280;45241;49.768;8.636;2022-08-01T09:23:52;100257.97;;;28.65;58.45
59435;BME280;45241;49.768;8.636;2022-08-01T09:26:20;100259.78;;;28.34;58.18
59435;BME280;45241;49.768;8.636;2022-08-01T09:28:47;100263.38;;;27.14;61.05
59435;BME280;45241;49.768;8.636;2022-08-01T09:31:14;100256.31;;;28.14;60.68
59435;BME280;45241;49.768;8.636;2022-08-01T09:33:51;100265.28;;;28.34;58.81
59435;BME280;45241;49.768;8.636;2022-08-01T09:36:18;100265.38;;;27.74;58.76
59435;BME280;45241;49.768;8.636;2022-08-01T09:38:45;100275.22;;;27.15;60.89
59435;BME280;45241;49.768;8.636;2022-08-01T09:41:10;100266.25;;;27.23;61.21
59435;BME280;45241;49.768;8.636;2022-08-01T09:43:37;100269.56;;;27.71;60.26
59435;BME280;45241;49.768;8.636;2022-08-01T09:46:09;100276.78;;;27.53;60.33
59435;BME280;45241;49.768;8.636;2022-08-01T09:48:38;100268.00;;;27.79;59.62
59435;BME280;45241;49.768;8.636;2022-08-01T09:51:05;100272.19;;;27.30;61.24
59435;BME280;45241;49.768;8.636;2022-08-01T09:53:46;100272.66;;;27.18;61.25
59435;BME280;45241;49.768;8.636;2022-08-01T09:56:13;100268.72;;;27.71;59.03
59435;BME280;45241;49.768;8.636;2022-08-01T09:58:55;100268.63;;;28.58;58.96
59435;BME280;45241;49.768;8.636;2022-08-01T10:01:22;100266.59;;;28.09;58.90
59435;BME280;45241;49.768;8.636;2022-08-01T10:06:33;100275.47;;;28.47;57.47
59435;BME280;45241;49.768;8.636;2022-08-01T10:08:59;100270.22;;;28.73;57.73
59435;BME280;45241;49.768;8.636;2022-08-01T10:11:24;100269.19;;;28.69;57.02
59435;BME280;45241;49.768;8.636;2022-08-01T10:13:50;100274.31;;;27.66;58.31
59435;BME280;45241;49.768;8.636;2022-08-01T10:16:15;100260.31;;;28.22;57.88
59435;BME280;45241;49.768;8.636;2022-08-01T10:18:41;100262.72;;;28.87;55.56
59435;BME280;45241;49.768;8.636;2022-08-01T10:21:08;100261.91;;;29.09;55.17
59435;BME280;45241;49.768;8.636;2022-08-01T10:23:36;100259.16;;;28.87;55.10
59435;BME280;45241;49.768;8.636;2022-08-01T10:26:04;100250.88;;;29.94;54.87
59435;BME280;45241;49.768;8.636;2022-08-01T10:28:31;100256.81;;;29.78;53.73
59435;BME280;45241;49.768;8.636;2022-08-01T10:31:00;100260.81;;;28.24;57.14
59435;BME280;45241;49.768;8.636;2022-08-01T10:33:25;100254.34;;;28.29;56.87
59435;BME280;45241;49.768;8.636;2022-08-01T10:35:51;100239.97;;;29.35;54.13
59435;BME280;45241;49.768;8.636;2022-08-01T10:38:17;100264.63;;;29.00;55.76
59435;BME280;45241;49.768;8.636;2022-08-01T10:40:43;100251.56;;;28.42;56.69
59435;BME280;45241;49.768;8.636;2022-08-01T10:43:12;100254.75;;;27.53;59.10
59435;BME280;45241;49.768;8.636;2022-08-01T10:45:40;100247.22;;;28.14;57.38
59435;BME280;45241;49.768;8.636;2022-08-01T10:50:47;100248.22;;;29.26;55.09
59435;BME280;45241;49.768;8.636;2022-08-01T10:53:18;100244.47;;;28.78;56.20
59435;BME280;45241;49.768;8.636;2022-08-01T10:56:05;100235.97;;;29.72;54.50
59435;BME280;45241;49.768;8.636;2022-08-01T10:58:37;100234.19;;;29.68;54.35
59435;BME280;45241;49.768;8.636;2022-08-01T11:01:14;100231.00;;;29.83;53.47
59435;BME280;45241;49.768;8.636;2022-08-01T11:03:45;100230.94;;;29.74;55.28
59435;BME280;45241;49.768;8.636;2022-08-01T11:06:34;100222.94;;;29.33;53.29
59435;BME280;45241;49.768;8.636;2022-08-01T11:09:04;100229.66;;;28.96;55.06
59435;BME280;45241;49.768;8.636;2022-08-01T11:11:29;100245.16;;;29.06;54.12
59435;BME280;45241;49.768;8.636;2022-08-01T11:16:28;100240.16;;;28.35;55.31
59435;BME280;45241;49.768;8.636;2022-08-01T11:18:54;100242.50;;;28.28;54.93
59435;BME280;45241;49.768;8.636;2022-08-01T11:21:19;100224.72;;;28.70;54.86
59435;BME280;45241;49.768;8.636;2022-08-01T11:23:49;100233.94;;;28.80;54.65
59435;BME280;45241;49.768;8.636;2022-08-01T11:26:16;100229.41;;;29.28;54.51
59435;BME280;45241;49.768;8.636;2022-08-01T11:28:43;100220.38;;;27.92;56.08
59435;BME280;45241;49.768;8.636;2022-08-01T11:41:26;100213.88;;;29.10;55.13
59435;BME280;45241;49.768;8.636;2022-08-01T11:54:35;100210.91;;;27.84;57.26
59435;BME280;45241;49.768;8.636;2022-08-01T11:57:06;100203.16;;;28.50;55.72
59435;BME280;45241;49.768;8.636;2022-08-01T11:59:37;100204.22;;;28.77;55.61
59435;BME280;45241;49.768;8.636;2022-08-01T12:02:03;100208.19;;;28.70;55.21
59435;BME280;45241;49.768;8.636;2022-08-01T12:04:48;100199.59;;;28.86;54.71
59435;BME280;45241;49.768;8.636;2022-08-01T12:07:15;100195.94;;;28.99;55.78
59435;BME280;45241;49.768;8.636;2022-08-01T12:09:40;100196.59;;;29.27;55.73
59435;BME280;45241;49.768;8.636;2022-08-01T12:12:06;100198.41;;;29.31;53.52
59435;BME280;45241;49.768;8.636;2022-08-01T12:14:32;100197.34;;;29.81;52.56
59435;BME280;45241;49.768;8.636;2022-08-01T12:16:57;100198.00;;;29.86;52.35
59435;BME280;45241;49.768;8.636;2022-08-01T12:19:24;100191.91;;;29.05;53.22
59435;BME280;45241;49.768;8.636;2022-08-01T12:22:09;100185.81;;;29.87;51.61
59435;BME280;45241;49.768;8.636;2022-08-01T12:24:35;100185.13;;;29.73;51.39
59435;BME280;45241;49.768;8.636;2022-08-01T12:27:02;100185.47;;;30.55;50.13
59435;BME280;45241;49.768;8.636;2022-08-01T12:29:41;100171.50;;;29.85;51.01
59435;BME280;45241;49.768;8.636;2022-08-01T12:32:23;100170.72;;;29.94;50.07
59435;BME280;45241;49.768;8.636;2022-08-01T12:34:49;100179.09;;;30.28;49.68
59435;BME280;45241;49.768;8.636;2022-08-01T12:37:16;100169.97;;;30.36;49.42
59435;BME280;45241;49.768;8.636;2022-08-01T12:39:41;100172.16;;;30.57;48.79
59435;BME280;45241;49.768;8.636;2022-08-01T12:42:08;100176.41;;;29.88;48.85
59435;BME280;45241;49.768;8.636;2022-08-01T12:44:35;100175.16;;;29.55;50.16
59435;BME280;45241;49.768;8.636;2022-08-01T12:47:01;100179.75;;;30.34;49.19
59435;BME280;45241;49.768;8.636;2022-08-01T12:49:27;100173.47;;;29.94;50.26
59435;BME280;45241;49.768;8.636;2022-08-01T12:51:54;100180.75;;;30.81;48.57
59435;BME280;45241;49.768;8.636;2022-08-01T12:54:20;100175.69;;;30.14;50.99
59435;BME280;45241;49.768;8.636;2022-08-01T12:56:45;100174.38;;;29.72;50.03
59435;BME280;45241;49.768;8.636;2022-08-01T12:59:25;100171.63;;;30.29;49.76
59435;BME280;45241;49.768;8.636;2022-08-01T13:01:55;100179.47;;;29.78;50.14
59435;BME280;45241;49.768;8.636;2022-08-01T13:04:21;100169.34;;;30.48;50.22
59435;BME280;45241;49.768;8.636;2022-08-01T13:06:48;100167.41;;;30.74;48.78
59435;BME280;45241;49.768;8.636;2022-08-01T13:09:17;100169.69;;;30.72;48.30
59435;BME280;45241;49.768;8.636;2022-08-01T13:11:43;100164.22;;;29.89;48.34
59435;BME280;45241;49.768;8.636;2022-08-01T13:14:09;100159.06;;;30.92;47.55
59435;BME280;45241;49.768;8.636;2022-08-01T13:16:46;100159.66;;;31.15;47.38
59435;BME280;45241;49.768;8.636;2022-08-01T13:19:12;100169.44;;;31.03;46.30
59435;BME280;45241;49.768;8.636;2022-08-01T13:21:37;100160.88;;;31.81;46.51
59435;BME280;45241;49.768;8.636;2022-08-01T13:24:07;100162.22;;;32.05;46.92
59435;BME280;45241;49.768;8.636;2022-08-01T13:26:49;100155.00;;;31.83;45.91
59435;BME280;45241;49.768;8.636;2022-08-01T13:29:22;100162.69;;;31.39;45.06
59435;BME280;45241;49.768;8.636;2022-08-01T13:31:53;100162.91;;;31.63;44.58
59435;BME280;45241;49.768;8.636;2022-08-01T13:34:29;100162.00;;;30.78;46.84
59435;BME280;45241;49.768;8.636;2022-08-01T13:36:54;100156.38;;;31.68;46.56